createdAt,value
2023-06-18T00:02:13.956Z,18.52
2023-06-18T00:04:41.679Z,18.52
2023-06-18T00:07:09.988Z,18.53
2023-06-18T00:09:38.076Z,18.53
2023-06-18T00:12:06.508Z,18.52
2023-06-18T00:14:34.784Z,18.51
2023-06-18T00:17:02.720Z,18.49
2023-06-18T00:19:31.493Z,18.46
2023-06-18T00:22:00.985Z,18.43
2023-06-18T00:24:29.059Z,18.39
2023-06-18T00:26:57.022Z,18.34
2023-06-18T00:29:25.077Z,18.29
2023-06-18T00:31:53.058Z,18.23
2023-06-18T00:34:22.035Z,18.18
2023-06-18T00:36:52.091Z,18.09
2023-06-18T00:39:20.226Z,18.02
2023-06-18T00:41:48.335Z,17.95
2023-06-18T00:44:16.458Z,17.88
2023-06-18T00:46:48.120Z,17.82
2023-06-18T00:49:20.489Z,17.75
2023-06-18T00:51:49.215Z,17.68
2023-06-18T00:54:18.575Z,17.61
2023-06-18T00:56:53.725Z,17.54
2023-06-18T00:59:24.105Z,17.47
2023-06-18T01:01:56.533Z,17.41
2023-06-18T01:04:28.774Z,17.35
2023-06-18T01:06:57.540Z,17.29
2023-06-18T01:09:27.038Z,17.25
2023-06-18T01:11:55.470Z,17.21
2023-06-18T01:14:24.408Z,17.16
2023-06-18T01:16:52.850Z,17.11
2023-06-18T01:19:53.373Z,17.05
2023-06-18T01:22:31.673Z,16.97
2023-06-18T01:25:00.377Z,16.92
2023-06-18T01:27:29.341Z,16.86
2023-06-18T01:29:57.916Z,16.81
2023-06-18T01:32:26.024Z,16.75
2023-06-18T01:34:57.235Z,16.70
2023-06-18T01:37:45.783Z,16.66
2023-06-18T01:40:27.500Z,16.64
2023-06-18T01:43:19.168Z,16.61
2023-06-18T01:45:48.636Z,16.58
2023-06-18T01:48:16.847Z,16.54
2023-06-18T01:50:46.273Z,16.51
2023-06-18T01:53:17.210Z,16.47
2023-06-18T01:55:46.253Z,16.44
2023-06-18T01:58:16.832Z,16.42
2023-06-18T02:00:44.999Z,16.41
2023-06-18T02:03:12.896Z,16.39
2023-06-18T02:05:40.776Z,16.38
2023-06-18T02:08:08.685Z,16.37
2023-06-18T02:10:36.784Z,16.38
2023-06-18T02:13:04.753Z,16.41
2023-06-18T02:15:32.582Z,16.45
2023-06-18T02:18:00.574Z,16.46
2023-06-18T02:20:28.787Z,16.46
2023-06-18T02:22:56.927Z,16.48
2023-06-18T02:25:30.460Z,16.48
2023-06-18T02:28:00.406Z,16.47
2023-06-18T02:30:31.354Z,16.50
2023-06-18T02:33:02.648Z,16.52
2023-06-18T02:35:30.710Z,16.55
2023-06-18T02:37:58.596Z,16.58
2023-06-18T02:40:27.152Z,16.62
2023-06-18T02:42:56.425Z,16.66
2023-06-18T02:45:26.046Z,16.70
2023-06-18T02:47:54.279Z,16.73
2023-06-18T02:50:22.693Z,16.78
2023-06-18T02:52:51.744Z,16.84
2023-06-18T02:55:19.970Z,16.88
2023-06-18T02:57:47.951Z,16.93
2023-06-18T03:00:16.190Z,17.00
2023-06-18T03:02:45.785Z,17.09
2023-06-18T03:05:22.543Z,17.20
2023-06-18T03:07:52.401Z,17.26
2023-06-18T03:10:20.875Z,17.32
2023-06-18T03:12:50.788Z,17.38
2023-06-18T03:15:25.528Z,17.45
2023-06-18T03:17:53.332Z,17.50
2023-06-18T03:20:21.701Z,17.56
2023-06-18T03:22:53.793Z,17.62
2023-06-18T03:25:21.800Z,17.66
2023-06-18T03:27:49.881Z,17.72
2023-06-18T03:30:18.823Z,17.80
2023-06-18T03:32:47.581Z,17.86
2023-06-18T03:35:16.439Z,17.92
2023-06-18T03:37:44.962Z,18.00
2023-06-18T03:40:14.174Z,18.05
2023-06-18T03:42:42.765Z,18.13
2023-06-18T03:45:11.750Z,18.19
2023-06-18T03:47:39.773Z,18.26
2023-06-18T03:50:08.381Z,18.30
2023-06-18T03:52:36.599Z,18.37
2023-06-18T03:55:05.626Z,18.44
2023-06-18T03:57:34.171Z,18.51
2023-06-18T04:00:02.515Z,18.57
2023-06-18T04:02:40.565Z,18.63
2023-06-18T04:05:10.342Z,18.69
2023-06-18T04:07:38.628Z,18.76
2023-06-18T04:10:07.418Z,18.84
2023-06-18T04:12:35.404Z,18.91
2023-06-18T04:15:04.153Z,18.99
2023-06-18T04:17:42.954Z,19.05
2023-06-18T04:20:13.634Z,19.12
2023-06-18T04:22:41.988Z,19.20
2023-06-18T04:25:11.308Z,19.29
2023-06-18T04:27:40.883Z,19.40
2023-06-18T04:30:09.516Z,19.50
2023-06-18T04:32:39.271Z,19.59
2023-06-18T04:35:07.793Z,19.67
2023-06-18T04:37:37.732Z,19.77
2023-06-18T04:40:06.940Z,19.85
2023-06-18T04:42:36.547Z,19.96
2023-06-18T04:45:05.428Z,20.07
2023-06-18T04:47:34.150Z,20.18
2023-06-18T04:50:03.838Z,20.27
2023-06-18T04:52:32.608Z,20.39
2023-06-18T04:55:00.709Z,20.48
2023-06-18T04:57:29.180Z,20.56
2023-06-18T04:59:57.557Z,20.68
2023-06-18T05:02:26.248Z,20.79
2023-06-18T05:04:54.224Z,20.88
2023-06-18T05:07:22.772Z,20.98
2023-06-18T05:09:51.156Z,21.07
2023-06-18T05:12:19.201Z,21.16
2023-06-18T05:14:47.568Z,21.24
2023-06-18T05:17:15.612Z,21.34
2023-06-18T05:19:43.696Z,21.50
2023-06-18T05:22:11.761Z,21.63
2023-06-18T05:24:41.503Z,21.73
2023-06-18T05:27:09.623Z,21.81
2023-06-18T05:29:39.205Z,21.90
2023-06-18T05:32:08.503Z,21.99
2023-06-18T05:34:36.989Z,22.11
2023-06-18T05:37:05.602Z,22.20
2023-06-18T05:39:33.680Z,22.36
2023-06-18T05:42:01.693Z,22.52
2023-06-18T05:44:29.677Z,22.65
2023-06-18T05:46:57.744Z,22.76
2023-06-18T05:49:27.421Z,22.83
2023-06-18T05:51:55.584Z,22.89
2023-06-18T05:54:23.969Z,22.98
2023-06-18T05:56:53.140Z,23.08
2023-06-18T05:59:22.656Z,23.16
2023-06-18T06:01:56.502Z,23.29
2023-06-18T06:04:25.091Z,23.41
2023-06-18T06:06:53.169Z,23.48
2023-06-18T06:09:21.277Z,23.60
2023-06-18T06:11:49.715Z,23.75
2023-06-18T06:14:17.949Z,23.83
2023-06-18T06:16:47.066Z,23.85
2023-06-18T06:19:15.184Z,23.89
2023-06-18T06:21:43.061Z,24.03
2023-06-18T06:24:11.057Z,24.16
2023-06-18T06:26:38.880Z,24.26
2023-06-18T06:29:07.560Z,24.33
2023-06-18T06:31:35.501Z,24.44
2023-06-18T06:34:03.729Z,24.58
2023-06-18T06:36:31.759Z,24.76
2023-06-18T06:38:59.977Z,24.96
2023-06-18T06:41:28.147Z,25.15
2023-06-18T06:43:56.200Z,25.32
2023-06-18T06:46:43.048Z,25.46
2023-06-18T06:49:37.348Z,25.53
2023-06-18T06:52:25.899Z,25.50
2023-06-18T06:54:56.196Z,25.53
2023-06-18T06:57:24.537Z,25.64
2023-06-18T06:59:52.681Z,25.68
2023-06-18T07:02:20.641Z,25.67
2023-06-18T07:04:50.081Z,25.71
2023-06-18T07:07:18.166Z,25.79
2023-06-18T07:09:46.273Z,25.92
2023-06-18T07:12:14.309Z,26.05
2023-06-18T07:14:42.302Z,26.13
2023-06-18T07:17:10.368Z,26.20
2023-06-18T07:19:38.464Z,26.25
2023-06-18T07:22:06.357Z,26.24
2023-06-18T07:24:34.565Z,26.35
2023-06-18T07:27:03.185Z,26.45
2023-06-18T07:29:31.596Z,26.50
2023-06-18T07:32:00.267Z,26.61
2023-06-18T07:34:28.270Z,26.74
2023-06-18T07:36:56.662Z,26.90
2023-06-18T07:39:24.641Z,27.03
2023-06-18T07:41:53.142Z,27.16
2023-06-18T07:44:21.172Z,27.25
2023-06-18T07:46:49.604Z,27.30
2023-06-18T07:49:18.230Z,27.39
2023-06-18T07:51:46.278Z,27.46
2023-06-18T07:54:14.116Z,27.48
2023-06-18T07:56:42.002Z,27.56
2023-06-18T07:59:10.135Z,27.61
2023-06-18T08:01:38.134Z,27.63
2023-06-18T08:04:06.277Z,27.61
2023-06-18T08:06:34.187Z,27.66
2023-06-18T08:09:02.045Z,27.68
2023-06-18T08:11:30.125Z,27.76
2023-06-18T08:13:57.989Z,27.89
2023-06-18T08:16:26.787Z,27.98
2023-06-18T08:18:54.900Z,28.04
2023-06-18T08:21:23.565Z,28.08
2023-06-18T08:23:52.290Z,28.15
2023-06-18T08:26:20.676Z,28.18
2023-06-18T08:28:49.211Z,28.28
2023-06-18T08:31:17.127Z,28.25
2023-06-18T08:33:45.278Z,28.17
2023-06-18T08:36:13.250Z,28.18
2023-06-18T08:38:41.192Z,28.34
2023-06-18T08:41:11.234Z,28.42
2023-06-18T08:43:39.605Z,28.39
2023-06-18T08:46:12.776Z,28.43
2023-06-18T08:49:00.664Z,28.47
2023-06-18T08:51:28.624Z,28.50
2023-06-18T08:54:08.230Z,28.59
2023-06-18T08:56:38.844Z,28.70
2023-06-18T08:59:06.854Z,28.81
2023-06-18T09:01:34.824Z,28.92
2023-06-18T09:04:02.841Z,29.00
2023-06-18T09:06:30.903Z,29.01
2023-06-18T09:09:01.913Z,29.04
2023-06-18T09:11:36.717Z,29.15
2023-06-18T09:14:05.314Z,29.22
2023-06-18T09:16:33.408Z,29.29
2023-06-18T09:19:04.019Z,29.41
2023-06-18T09:21:40.812Z,29.62
2023-06-18T09:24:10.939Z,29.74
2023-06-18T09:26:38.874Z,29.69
2023-06-18T09:29:07.156Z,29.66
2023-06-18T09:31:36.294Z,29.71
2023-06-18T09:34:24.662Z,29.80
2023-06-18T09:36:52.732Z,29.97
2023-06-18T09:39:24.001Z,30.02
2023-06-18T09:41:53.481Z,29.87
2023-06-18T09:44:22.301Z,29.81
2023-06-18T09:46:52.432Z,29.72
2023-06-18T09:49:21.296Z,29.69
2023-06-18T09:51:50.815Z,29.88
2023-06-18T09:54:19.189Z,30.04
2023-06-18T09:56:59.160Z,30.09
2023-06-18T09:59:27.539Z,30.14
2023-06-18T10:01:58.650Z,30.14
2023-06-18T10:04:27.126Z,29.99
2023-06-18T10:06:59.836Z,30.01
2023-06-18T10:09:36.694Z,30.00
2023-06-18T10:12:06.116Z,30.02
2023-06-18T10:14:34.660Z,30.17
2023-06-18T10:17:24.802Z,30.31
2023-06-18T10:20:10.577Z,30.26
2023-06-18T10:22:47.037Z,30.45
2023-06-18T10:25:15.133Z,30.63
2023-06-18T10:27:43.422Z,30.69
2023-06-18T10:30:12.284Z,30.72
2023-06-18T10:32:40.365Z,30.79
2023-06-18T10:35:09.878Z,30.84
2023-06-18T10:37:38.008Z,30.80
2023-06-18T10:40:06.919Z,30.81
2023-06-18T10:42:36.182Z,30.76
2023-06-18T10:45:12.401Z,30.77
2023-06-18T10:47:41.177Z,30.71
2023-06-18T10:50:09.298Z,30.61
2023-06-18T10:52:38.813Z,30.58
2023-06-18T10:55:17.063Z,30.43
2023-06-18T10:57:45.158Z,30.49
2023-06-18T11:00:16.988Z,30.67
2023-06-18T11:02:46.062Z,30.71
2023-06-18T11:05:37.836Z,30.79
2023-06-18T11:08:07.974Z,30.74
2023-06-18T11:10:39.802Z,30.84
2023-06-18T11:13:09.038Z,31.06
2023-06-18T11:15:37.987Z,31.02
2023-06-18T11:18:06.001Z,30.95
2023-06-18T11:20:36.028Z,30.89
2023-06-18T11:23:05.357Z,30.87
2023-06-18T11:25:33.465Z,31.05
2023-06-18T11:28:03.635Z,31.32
2023-06-18T11:30:35.286Z,31.58
2023-06-18T11:33:03.782Z,31.56
2023-06-18T11:35:32.212Z,31.54
2023-06-18T11:38:00.749Z,31.64
2023-06-18T11:40:28.795Z,31.56
2023-06-18T11:42:56.921Z,31.14
2023-06-18T11:45:25.470Z,30.64
2023-06-18T11:47:54.500Z,30.46
2023-06-18T11:50:23.757Z,30.54
2023-06-18T11:52:52.047Z,30.67
2023-06-18T11:55:21.023Z,30.74
2023-06-18T11:57:49.153Z,30.85
2023-06-18T12:00:17.623Z,30.88
2023-06-18T12:02:46.301Z,30.89
2023-06-18T12:05:14.544Z,30.94
2023-06-18T12:07:44.220Z,30.82
2023-06-18T12:10:13.081Z,30.51
2023-06-18T12:13:03.685Z,30.18
2023-06-18T12:15:38.663Z,30.22
2023-06-18T12:18:14.294Z,30.44
2023-06-18T12:20:42.508Z,30.53
2023-06-18T12:23:11.768Z,30.41
2023-06-18T12:25:39.774Z,30.32
2023-06-18T12:28:08.461Z,30.16
2023-06-18T12:30:38.929Z,29.72
2023-06-18T12:33:11.338Z,29.33
2023-06-18T12:35:43.378Z,29.13
2023-06-18T12:38:11.770Z,29.11
2023-06-18T12:40:57.388Z,29.28
2023-06-18T12:43:25.532Z,29.56
2023-06-18T12:45:54.352Z,29.92
2023-06-18T12:48:26.652Z,30.34
2023-06-18T12:50:56.328Z,30.64
2023-06-18T12:53:26.081Z,30.82
2023-06-18T12:56:18.417Z,30.84
2023-06-18T12:58:46.699Z,30.90
2023-06-18T13:01:15.123Z,30.93
2023-06-18T13:03:43.838Z,31.00
2023-06-18T13:06:12.926Z,31.03
2023-06-18T13:08:41.326Z,31.11
2023-06-18T13:11:09.418Z,31.06
2023-06-18T13:13:37.430Z,30.97
2023-06-18T13:16:05.752Z,30.99
2023-06-18T13:18:34.059Z,31.16
2023-06-18T13:21:04.120Z,31.26
2023-06-18T13:23:32.309Z,31.34
2023-06-18T13:26:00.790Z,31.56
2023-06-18T13:28:29.164Z,31.55
2023-06-18T13:30:58.696Z,31.28
2023-06-18T13:33:27.247Z,31.04
2023-06-18T13:35:55.512Z,30.94
2023-06-18T13:38:23.472Z,30.97
2023-06-18T13:40:52.890Z,31.13
2023-06-18T13:43:21.022Z,31.15
2023-06-18T13:45:49.286Z,31.12
2023-06-18T13:48:17.624Z,31.27
2023-06-18T13:50:45.892Z,31.46
2023-06-18T13:53:14.230Z,31.63
2023-06-18T13:55:42.827Z,31.75
2023-06-18T13:58:11.377Z,31.66
2023-06-18T14:00:39.781Z,31.56
2023-06-18T14:03:08.137Z,31.62
2023-06-18T14:05:37.420Z,31.70
2023-06-18T14:08:06.072Z,31.64
2023-06-18T14:10:34.318Z,31.43
2023-06-18T14:13:02.453Z,31.15
2023-06-18T14:15:30.774Z,31.09
2023-06-18T14:17:59.485Z,31.19
2023-06-18T14:20:27.654Z,31.29
2023-06-18T14:22:55.862Z,31.40
2023-06-18T14:25:24.386Z,31.48
2023-06-18T14:27:52.775Z,31.62
2023-06-18T14:30:21.252Z,31.76
2023-06-18T14:32:49.408Z,31.81
2023-06-18T14:35:17.780Z,31.65
2023-06-18T14:37:46.047Z,31.33
2023-06-18T14:40:14.737Z,31.13
2023-06-18T14:42:43.839Z,31.10
2023-06-18T14:45:12.451Z,31.15
2023-06-18T14:47:42.562Z,31.23
2023-06-18T14:50:11.968Z,31.24
2023-06-18T14:52:40.092Z,31.21
2023-06-18T14:55:08.865Z,31.06
2023-06-18T14:57:38.082Z,30.91
2023-06-18T15:00:07.917Z,30.99
2023-06-18T15:02:36.669Z,30.99
2023-06-18T15:05:05.988Z,30.90
2023-06-18T15:07:34.770Z,30.74
2023-06-18T15:10:02.753Z,30.70
2023-06-18T15:12:30.704Z,30.89
2023-06-18T15:14:59.159Z,30.95
2023-06-18T15:17:27.226Z,30.93
2023-06-18T15:19:58.772Z,30.97
2023-06-18T15:22:26.944Z,30.92
2023-06-18T15:24:55.574Z,30.71
2023-06-18T15:27:23.829Z,30.65
2023-06-18T15:29:53.439Z,30.58
2023-06-18T15:32:21.909Z,30.46
2023-06-18T15:34:50.441Z,30.37
2023-06-18T15:37:18.911Z,30.18
2023-06-18T15:39:50.004Z,29.88
2023-06-18T15:42:18.815Z,29.68
2023-06-18T15:44:47.048Z,29.52
2023-06-18T15:47:14.921Z,29.38
2023-06-18T15:49:42.972Z,29.33
2023-06-18T15:52:11.323Z,29.24
2023-06-18T15:54:39.282Z,29.12
2023-06-18T15:57:07.379Z,29.01
2023-06-18T15:59:35.385Z,28.92
2023-06-18T16:02:03.606Z,28.75
2023-06-18T16:04:31.819Z,28.63
2023-06-18T16:06:59.880Z,28.50
2023-06-18T16:09:27.914Z,28.39
2023-06-18T16:11:56.163Z,28.29
2023-06-18T16:14:24.168Z,28.10
2023-06-18T16:16:52.192Z,27.85
2023-06-18T16:19:20.330Z,27.64
2023-06-18T16:21:48.502Z,27.46
2023-06-18T16:24:17.763Z,27.31
2023-06-18T16:26:45.941Z,27.16
2023-06-18T16:29:15.403Z,27.05
2023-06-18T16:31:44.064Z,26.95
2023-06-18T16:34:12.221Z,26.85
2023-06-18T16:36:42.727Z,26.77
2023-06-18T16:39:12.122Z,26.65
2023-06-18T16:41:40.662Z,26.54
2023-06-18T16:44:08.739Z,26.47
2023-06-18T16:46:36.908Z,26.36
2023-06-18T16:49:05.113Z,26.28
2023-06-18T16:51:34.622Z,26.18
2023-06-18T16:54:04.957Z,26.08
2023-06-18T16:56:33.064Z,26.01
2023-06-18T16:59:01.492Z,25.93
2023-06-18T17:01:30.091Z,25.86
2023-06-18T17:03:59.815Z,25.77
2023-06-18T17:06:28.178Z,25.67
2023-06-18T17:08:56.998Z,25.56
2023-06-18T17:11:26.030Z,25.44
2023-06-18T17:13:55.121Z,25.33
2023-06-18T17:16:24.117Z,25.20
2023-06-18T17:18:52.468Z,25.08
2023-06-18T17:21:22.321Z,24.97
2023-06-18T17:23:51.499Z,24.88
2023-06-18T17:26:20.252Z,24.79
2023-06-18T17:28:49.165Z,24.71
2023-06-18T17:31:18.030Z,24.62
2023-06-18T17:33:46.740Z,24.52
2023-06-18T17:36:15.534Z,24.44
2023-06-18T17:38:46.248Z,24.37
2023-06-18T17:41:15.489Z,24.27
2023-06-18T17:43:45.041Z,24.17
2023-06-18T17:46:15.524Z,24.06
2023-06-18T17:48:46.986Z,23.94
2023-06-18T17:51:16.730Z,23.85
2023-06-18T17:53:48.694Z,23.76
2023-06-18T17:56:17.570Z,23.69
2023-06-18T17:58:46.546Z,23.61
2023-06-18T18:01:15.988Z,23.52
2023-06-18T18:03:45.730Z,23.43
2023-06-18T18:06:16.546Z,23.35
2023-06-18T18:08:50.187Z,23.26
2023-06-18T18:11:19.967Z,23.20
2023-06-18T18:13:49.274Z,23.13
2023-06-18T18:16:21.779Z,23.07
2023-06-18T18:18:51.641Z,23.00
2023-06-18T18:21:21.895Z,22.93
2023-06-18T18:23:51.181Z,22.85
2023-06-18T18:26:28.825Z,22.76
2023-06-18T18:29:03.653Z,22.66
2023-06-18T18:31:34.219Z,22.59
2023-06-18T18:34:04.317Z,22.53
2023-06-18T18:36:33.702Z,22.46
2023-06-18T18:39:04.353Z,22.38
2023-06-18T18:41:34.165Z,22.30
2023-06-18T18:44:04.076Z,22.24
2023-06-18T18:46:35.875Z,22.20
2023-06-18T18:49:07.409Z,22.15
2023-06-18T18:51:37.594Z,22.08
2023-06-18T18:54:08.819Z,22.04
2023-06-18T18:56:38.913Z,22.00
2023-06-18T18:59:09.794Z,21.96
2023-06-18T19:01:42.965Z,21.89
2023-06-18T19:04:13.153Z,21.81
2023-06-18T19:06:44.360Z,21.73
2023-06-18T19:09:15.356Z,21.68
2023-06-18T19:11:45.301Z,21.64
2023-06-18T19:14:15.092Z,21.60
2023-06-18T19:16:45.231Z,21.55
2023-06-18T19:19:18.533Z,21.51
2023-06-18T19:21:48.661Z,21.47
2023-06-18T19:24:19.831Z,21.41
2023-06-18T19:26:52.880Z,21.35
2023-06-18T19:29:22.792Z,21.30
2023-06-18T19:31:55.716Z,21.26
2023-06-18T19:34:25.862Z,21.23
2023-06-18T19:36:56.064Z,21.19
2023-06-18T19:39:25.909Z,21.14
2023-06-18T19:41:55.791Z,21.10
2023-06-18T19:44:26.444Z,21.10
2023-06-18T19:46:58.569Z,21.09
2023-06-18T19:49:30.014Z,21.08
2023-06-18T19:51:59.711Z,21.11
2023-06-18T19:54:29.189Z,21.11
2023-06-18T19:57:00.665Z,21.09
2023-06-18T19:59:30.234Z,21.04
2023-06-18T20:02:00.441Z,20.98
2023-06-18T20:04:31.228Z,20.93
2023-06-18T20:07:00.452Z,20.90
2023-06-18T20:09:34.860Z,20.88
2023-06-18T20:12:07.037Z,20.86
2023-06-18T20:14:36.003Z,20.81
2023-06-18T20:17:05.617Z,20.76
2023-06-18T20:19:34.665Z,20.73
2023-06-18T20:22:05.097Z,20.69
2023-06-18T20:24:34.379Z,20.66
2023-06-18T20:27:03.575Z,20.62
2023-06-18T20:29:33.243Z,20.57
2023-06-18T20:32:01.543Z,20.54
2023-06-18T20:34:29.558Z,20.53
2023-06-18T20:36:57.545Z,20.53
2023-06-18T20:39:25.641Z,20.52
2023-06-18T20:41:53.693Z,20.47
2023-06-18T20:44:21.547Z,20.40
2023-06-18T20:46:49.594Z,20.36
2023-06-18T20:49:20.792Z,20.32
2023-06-18T20:51:48.975Z,20.28
2023-06-18T20:54:16.976Z,20.21
2023-06-18T20:56:46.801Z,20.16
2023-06-18T20:59:14.703Z,20.13
2023-06-18T21:01:42.933Z,20.08
2023-06-18T21:04:10.907Z,20.02
2023-06-18T21:06:39.008Z,19.97
2023-06-18T21:09:07.017Z,19.91
2023-06-18T21:11:34.954Z,19.85
2023-06-18T21:14:02.960Z,19.82
2023-06-18T21:16:31.007Z,19.80
2023-06-18T21:18:58.900Z,19.81
2023-06-18T21:21:26.682Z,19.79
2023-06-18T21:23:54.677Z,19.76
2023-06-18T21:26:22.671Z,19.73
2023-06-18T21:28:50.467Z,19.70
2023-06-18T21:31:18.366Z,19.67
2023-06-18T21:33:47.948Z,19.64
2023-06-18T21:36:16.177Z,19.58
2023-06-18T21:38:44.041Z,19.53
2023-06-18T21:41:11.845Z,19.48
2023-06-18T21:43:39.728Z,19.41
2023-06-18T21:46:07.719Z,19.35
2023-06-18T21:48:35.690Z,19.30
2023-06-18T21:51:03.657Z,19.25
2023-06-18T21:53:31.619Z,19.23
2023-06-18T21:56:04.568Z,19.20
2023-06-18T21:58:35.301Z,19.16
2023-06-18T22:01:04.775Z,19.12
2023-06-18T22:03:32.850Z,19.09
2023-06-18T22:06:00.947Z,19.06
2023-06-18T22:08:49.871Z,18.98
2023-06-18T22:11:18.156Z,18.89
2023-06-18T22:13:46.495Z,18.81
2023-06-18T22:16:15.214Z,18.73
2023-06-18T22:18:43.141Z,18.66
2023-06-18T22:21:14.141Z,18.61
2023-06-18T22:23:42.056Z,18.54
2023-06-18T22:26:10.024Z,18.52
2023-06-18T22:28:37.900Z,18.52
2023-06-18T22:31:05.777Z,18.52
2023-06-18T22:33:33.688Z,18.51
2023-06-18T22:36:01.556Z,18.51
2023-06-18T22:38:30.266Z,18.53
2023-06-18T22:40:58.648Z,18.53
2023-06-18T22:43:26.579Z,18.52
2023-06-18T22:45:54.542Z,18.50
2023-06-18T22:48:22.541Z,18.47
2023-06-18T22:50:50.463Z,18.47
2023-06-18T22:53:18.429Z,18.50
2023-06-18T22:55:46.567Z,18.52
2023-06-18T22:58:14.393Z,18.51
2023-06-18T23:00:42.448Z,18.47
2023-06-18T23:03:10.627Z,18.42
2023-06-18T23:05:39.012Z,18.38
2023-06-18T23:08:06.975Z,18.33
2023-06-18T23:10:38.117Z,18.26
2023-06-18T23:13:06.288Z,18.18
2023-06-18T23:15:34.608Z,18.10
2023-06-18T23:18:03.054Z,18.02
2023-06-18T23:20:31.075Z,17.96
2023-06-18T23:22:58.882Z,17.88
2023-06-18T23:25:26.727Z,17.80
2023-06-18T23:27:54.630Z,17.71
2023-06-18T23:30:22.822Z,17.65
2023-06-18T23:32:50.974Z,17.62
2023-06-18T23:35:18.850Z,17.58
2023-06-18T23:37:46.657Z,17.52
2023-06-18T23:40:14.717Z,17.44
2023-06-18T23:42:42.572Z,17.36
2023-06-18T23:45:10.921Z,17.28
2023-06-18T23:47:38.734Z,17.21
2023-06-18T23:50:07.593Z,17.14
2023-06-18T23:52:35.451Z,17.08
2023-06-18T23:55:03.312Z,17.03
2023-06-18T23:57:31.203Z,16.99
2023-06-18T23:59:59.062Z,16.94
